LFAT

Le Touquet-Côte d'Opale Airport

Airport
ICAO code
LFAT
IATA Code
LTQ
Summary
ICAO Region
EUR
ICAO Territory
Location

, Nord-Pas-de-Calais

Serving
Le Tourquet
Elevation
36 ft
Coordinates
50° 31' 3" N , 1° 37' 14" E
Metar
Observation
LFAT 030200Z AUTO 07014KT 020V100 8000 OVC014 03/00 Q1021
Station
Le Touquet
Date/Time
2022-12-03 02:00:00
Wind direction
70°
Wind speed
14 kts
Lowest cloud amount
overcast
Temperature
3°C
Dew point
0°C
Humidity
80%
QNH
1021 hPa
Weather condition
n/a

Runways

Designator Length Width Surface Rops
6/24 0 0 UNK No/No
14/32 1850 40 ASP No/No

Airport map

Aerial View

SKYbrary Partners:

Safety knowledge contributed by: